PDT,Max TemperatureF,Mean TemperatureF,Min TemperatureF,Max Dew PointF,MeanDew PointF,Min DewpointF,Max Humidity, Mean Humidity, Min Humidity, Max Sea Level PressureIn, Mean Sea Level PressureIn, Min Sea Level PressureIn, Max VisibilityMiles, Mean VisibilityMiles, Min VisibilityMiles, Max Wind SpeedMPH, Mean Wind SpeedMPH, Max Gust SpeedMPH,PrecipitationIn, CloudCover, Events, WindDirDegrees
2012-5-1,66,58,50,46,40,19,87,52,23,29.98,29.92,29.87,10,9,5,29,17,36,0.00,0,,302
2012-5-2,64,55,46,39,36,28,76,48,30,29.99,29.94,29.89,10,8,6,22,16,30,0.00,0,,304
2012-5-3,62,52,42,39,36,32,81,51,32,30.09,30.03,29.97,10,8,5,29,14,36,0.00,0,,303
2012-5-4,59,50,42,45,43,36,100,75,51,30.15,30.12,30.06,10,7,3,23,17,32,0.00,4,,301
2012-5-5,62,50,37,41,38,34,100,64,45,30.16,30.13,30.10,10,7,4,17,12,23,0.00,0,,301
2012-5-6,71,52,32,39,35,30,93,52,25,30.14,30.10,30.08,10,8,5,20,6,24,0.00,0,,306
2012-5-7,73,56,39,39,33,23,87,44,20,30.14,30.10,30.04,10,8,5,22,5,32,0.00,0,,309
2012-5-8,75,56,37,34,28,21,70,36,16,30.10,30.08,30.05,10,9,7,18,6,24,0.00,0,,317
2012-5-9,80,64,48,32,26,19,40,25,16,30.10,30.04,30.00,10,9,8,20,8,28,0.00,0,,302
2012-5-10,77,67,57,39,34,28,48,30,21,30.03,29.97,29.92,10,8,7,24,13,30,0.00,0,,298
2012-5-11,73,60,48,39,35,28,66,38,22,30.10,30.03,29.96,10,8,6,21,12,25,0.00,0,,301
2012-5-12,80,65,50,39,35,28,50,35,20,30.18,30.14,30.10,10,8,7,16,7,23,0.00,0,,311
2012-5-13,86,65,44,45,34,16,71,37,7,30.19,30.14,30.08,10,8,5,23,7,29,0.00,0,,84
2012-5-14,71,56,41,41,36,28,66,44,22,30.15,30.10,30.05,10,8,6,21,7,26,0.00,0,,309
2012-5-15,68,54,41,45,39,36,93,55,32,30.10,30.06,30.03,10,7,4,24,14,31,0.00,0,,303
2012-5-16,77,64,50,46,41,34,62,46,28,30.10,30.08,30.04,10,8,7,20,10,26,0.00,0,,305
2012-5-17,80,66,53,48,38,19,77,41,13,30.06,29.96,29.87,9,7,5,24,14,38,0.00,0,,301
2012-5-18,62,53,44,37,34,30,62,52,37,29.99,29.94,29.89,10,8,6,20,14,25,0.00,0,,300
2012-5-19,75,60,46,43,39,36,76,40,29,30.09,30.05,30.02,8,7,5,16,8,22,0.00,0,,310
2012-5-20,86,65,44,43,39,25,76,40,11,30.14,30.09,30.04,9,7,3,17,4,23,0.00,0,,324
2012-5-21,78,63,48,46,43,39,76,46,29,30.13,30.11,30.09,8,7,5,22,7,30,0.00,0,,303
2012-5-22,71,60,50,48,43,39,71,52,37,30.14,30.10,30.04,10,8,6,28,18,38,0.00,0,,300
2012-5-23,66,57,48,45,39,32,87,50,32,30.05,29.96,29.89,10,8,6,30,16,36,0.00,0,,300
2012-5-24,68,57,46,41,37,32,71,49,30,29.88,29.85,29.73,9,8,7,25,15,30,0.00,0,,303
2012-5-25,55,47,39,36,29,25,87,49,31,29.80,29.75,29.73,9,7,3,22,17,36,0.09,6,Rain,286
2012-5-26,55,46,37,37,34,32,87,63,41,30.07,29.93,29.80,10,9,4,26,18,36,0.13,5,Rain,303
2012-5-27,64,52,39,41,39,36,93,58,37,30.13,30.11,30.08,10,8,7,18,10,24,0.00,0,,305
2012-5-28,71,56,41,41,38,36,87,58,33,30.11,30.09,30.06,10,9,7,15,5,22,0.00,0,,319
2012-5-29,73,66,59,41,39,36,51,38,25,30.13,30.09,30.08,10,9,8,18,15,26,0.00,0,,305
2012-5-30,75,62,50,45,43,41,71,47,31,30.17,30.14,30.11,10,8,5,18,12,24,0.00,0,,300
2012-5-31,84,68,53,48,45,41,72,38,25,30.17,30.09,30.04,9,8,6,18,10,23,0.00,0,,307